Terminal Aerodrome Forecast
Issued by NWS

Home | Current Version | Previous Version | Text Only | Print | Product List | Glossary On
Versions: 1 2 3 4 5 6 7 8 9 10 11 12 13 14 15 16 17 18 19 20 21 22 23 24 25 26 27 28 29
000
FTUS43 KDLH 261200 AAA
TAFHYR
TAF AMD
KHYR 261240Z 2613/2712 18007KT 3SM -SN OVC025
      TEMPO 2613/2615 1SM -FZDZSN OVC016
     FM261600 20005KT 4SM -SN BR OVC010
     FM262200 23004KT 6SM BR OVC015
     FM270200 33003KT P6SM OVC015=

USA.gov is the U.S. government's official web portal to all federal, state and local government web resources and services.